Portada
METAR-TAF:

METAR-TAF

Aeroports :

Aeroport de Sant Sebastià

Sant Sebastià, Espanya

latitud: 43-21N, longitud: 001-48W, altitud: 5 m

Observació

L'informe es va fer fa 24 minuts, a les 04:30 UTC
Vent 1 kt amb direcció variable
Temperatura 7°C
Humitat 93%
Pressió 1031 hPa
Visibilitat 10 km o més
Cel ennuvolat a una alçada de 5400 ft

METAR: LESO 200430Z VRB01KT 9999 BKN054 07/06 Q1031

Hora: 05:54 (04:54 UTC)

Pronòstic

L'informe es va fer fa 5 hores i 54 minuts, a les 23:00 UTC
Pronòstic vàlid del 20 a les 00 UTC al 20 a les 24 UTC
Vent 6 kt del Nord
Visibilitat 10 km o més
Núvols disperses a una alçada de 3000 ft
Cel ennuvolat a una alçada de 5000 ft

TAF: LESO 192300Z 2000/2024 01006KT 9999 SCT030 BKN050 TX14/2015Z TN07/2007Z

Observacions i pronòstics meteorològics de més de 4000 aeroports (METAR i TAF).

Les estacions disponibles són els punts grocs i vermells al mapa.

Posi el ratolí al punt desitjat per veure el nom de l'estació.

Feu clic per veure les observacions i els pronòstics meteorològics.

Per canviar el mapa: feu clic els botons verds amb una creu de color negre per apropar; al botó verd amb un guió per allunyar la imatge; o en les fletxes verdes per a mapes adjacents.


METAR-TAF: